createdAt,value
2022-12-15T00:01:40.754Z,-2.11
2022-12-15T00:04:26.047Z,-1.96
2022-12-15T00:07:10.992Z,-1.67
2022-12-15T00:09:55.823Z,-1.62
2022-12-15T00:12:40.786Z,-1.60
2022-12-15T00:15:26.066Z,-1.60
2022-12-15T00:18:10.900Z,-1.62
2022-12-15T00:20:55.655Z,-1.63
2022-12-15T00:23:40.564Z,-1.62
2022-12-15T00:26:25.471Z,-1.59
2022-12-15T00:29:10.378Z,-1.60
2022-12-15T00:31:55.326Z,-1.56
2022-12-15T00:34:40.258Z,-1.56
2022-12-15T00:37:25.203Z,-1.60
2022-12-15T00:39:59.176Z,-1.57
2022-12-15T00:42:26.076Z,-1.57
2022-12-15T00:44:52.406Z,-1.59
2022-12-15T00:47:21.718Z,-1.56
2022-12-15T00:50:07.112Z,-1.55
2022-12-15T00:52:52.490Z,-1.56
2022-12-15T00:55:37.833Z,-1.54
2022-12-15T00:58:22.732Z,-1.58
2022-12-15T01:01:07.713Z,-1.53
2022-12-15T01:03:53.220Z,-1.52
2022-12-15T01:06:39.046Z,-1.53
2022-12-15T01:09:25.539Z,-1.51
2022-12-15T01:12:10.782Z,-1.53
2022-12-15T01:14:56.246Z,-1.52
2022-12-15T01:17:41.172Z,-1.53
2022-12-15T01:20:19.913Z,-1.52
2022-12-15T01:22:50.764Z,-1.48
2022-12-15T01:25:18.310Z,-1.46
2022-12-15T01:27:45.487Z,-1.47
2022-12-15T01:30:13.609Z,-1.49
2022-12-15T01:32:45.667Z,-1.49
2022-12-15T01:35:12.785Z,-1.51
2022-12-15T01:37:39.252Z,-1.53
2022-12-15T01:40:25.580Z,-1.52
2022-12-15T01:42:52.007Z,-1.51
2022-12-15T01:45:24.533Z,-1.53
2022-12-15T01:47:51.715Z,-1.55
2022-12-15T01:50:18.529Z,-1.61
2022-12-15T01:52:45.363Z,-1.71
2022-12-15T01:55:17.659Z,-1.66
2022-12-15T01:57:44.155Z,-1.73
2022-12-15T02:00:10.814Z,-1.69
2022-12-15T02:02:40.445Z,-1.69
2022-12-15T02:05:07.644Z,-1.69
2022-12-15T02:07:34.075Z,-1.65
2022-12-15T02:10:01.457Z,-1.61
2022-12-15T02:12:30.854Z,-1.62
2022-12-15T02:15:06.488Z,-1.65
2022-12-15T02:17:51.849Z,-1.65
2022-12-15T02:20:36.932Z,-1.64
2022-12-15T02:23:26.614Z,-1.62
2022-12-15T02:26:11.789Z,-1.64
2022-12-15T02:28:52.378Z,-1.60
2022-12-15T02:31:50.187Z,-1.58
2022-12-15T02:34:23.563Z,-1.55
2022-12-15T02:36:54.127Z,-1.54
2022-12-15T02:39:20.575Z,-1.51
2022-12-15T02:41:48.879Z,-1.51
2022-12-15T02:44:17.709Z,-1.51
2022-12-15T02:47:04.937Z,-1.52
2022-12-15T02:49:43.320Z,-1.49
2022-12-15T02:52:28.564Z,-1.54
2022-12-15T02:55:00.842Z,-1.52
2022-12-15T02:57:36.211Z,-1.50
2022-12-15T03:00:05.541Z,-1.47
2022-12-15T03:02:34.385Z,-1.47
2022-12-15T03:05:01.341Z,-1.46
2022-12-15T03:07:27.968Z,-1.44
2022-12-15T03:09:56.080Z,-1.44
2022-12-15T03:12:22.492Z,-1.46
2022-12-15T03:14:48.895Z,-1.46
2022-12-15T03:17:17.367Z,-1.47
2022-12-15T03:19:43.718Z,-1.47
2022-12-15T03:22:10.080Z,-1.45
2022-12-15T03:24:36.439Z,-1.48
2022-12-15T03:27:04.018Z,-1.46
2022-12-15T03:29:30.444Z,-1.45
2022-12-15T03:31:56.849Z,-1.48
2022-12-15T03:34:23.194Z,-1.47
2022-12-15T03:36:49.572Z,-1.48
2022-12-15T03:39:16.018Z,-1.51
2022-12-15T03:41:42.535Z,-1.51
2022-12-15T03:44:09.158Z,-1.55
2022-12-15T03:46:35.609Z,-1.58
2022-12-15T03:49:01.914Z,-1.58
2022-12-15T03:51:28.356Z,-1.61
2022-12-15T03:53:54.709Z,-1.65
2022-12-15T03:56:21.044Z,-1.64
2022-12-15T03:58:47.353Z,-1.66
2022-12-15T04:01:22.872Z,-1.63
2022-12-15T04:03:49.370Z,-1.58
2022-12-15T04:06:15.819Z,-1.56
2022-12-15T04:08:42.121Z,-1.56
2022-12-15T04:11:08.416Z,-1.55
2022-12-15T04:13:34.915Z,-1.51
2022-12-15T04:16:02.184Z,-1.48
2022-12-15T04:18:29.039Z,-1.43
2022-12-15T04:20:55.665Z,-1.45
2022-12-15T04:23:22.377Z,-1.43
2022-12-15T04:26:07.505Z,-1.42
2022-12-15T04:28:52.469Z,-1.45
2022-12-15T04:31:40.520Z,-1.43
2022-12-15T04:34:29.431Z,-1.42
2022-12-15T04:37:14.357Z,-1.36
2022-12-15T04:40:09.705Z,-1.35
2022-12-15T04:42:56.144Z,-1.34
2022-12-15T04:45:42.507Z,-1.33
2022-12-15T04:48:28.219Z,-1.30
2022-12-15T04:51:13.143Z,-1.28
2022-12-15T04:53:58.595Z,-1.28
2022-12-15T04:56:43.650Z,-1.29
2022-12-15T04:59:28.305Z,-1.30
2022-12-15T05:02:13.287Z,-1.28
2022-12-15T05:04:58.492Z,-1.27
2022-12-15T05:07:43.801Z,-1.26
2022-12-15T05:10:28.940Z,-1.28
2022-12-15T05:13:13.777Z,-1.25
2022-12-15T05:15:59.057Z,-1.26
2022-12-15T05:18:44.308Z,-1.26
2022-12-15T05:21:29.276Z,-1.25
2022-12-15T05:24:14.146Z,-1.25
2022-12-15T05:26:59.127Z,-1.24
2022-12-15T05:29:44.121Z,-1.27
2022-12-15T05:32:10.499Z,-1.29
2022-12-15T05:34:37.509Z,-1.35
2022-12-15T05:37:04.833Z,-1.33
2022-12-15T05:39:31.177Z,-1.35
2022-12-15T05:41:57.785Z,-1.30
2022-12-15T05:44:24.949Z,-1.34
2022-12-15T05:46:51.389Z,-1.28
2022-12-15T05:49:18.356Z,-1.31
2022-12-15T05:51:46.306Z,-1.34
2022-12-15T05:54:15.281Z,-1.29
2022-12-15T05:56:41.904Z,-1.28
2022-12-15T05:59:08.374Z,-1.27
2022-12-15T06:01:35.606Z,-1.26
2022-12-15T06:04:02.330Z,-1.27
2022-12-15T06:06:28.651Z,-1.28
2022-12-15T06:08:55.195Z,-1.26
2022-12-15T06:11:22.350Z,-1.28
2022-12-15T06:13:49.072Z,-1.30
2022-12-15T06:16:19.776Z,-1.26
2022-12-15T06:18:50.088Z,-1.27
2022-12-15T06:21:18.334Z,-1.25
2022-12-15T06:23:45.283Z,-1.22
2022-12-15T06:26:20.565Z,-1.24
2022-12-15T06:28:47.483Z,-1.22
2022-12-15T06:31:14.498Z,-1.19
2022-12-15T06:33:41.010Z,-1.15
2022-12-15T06:36:11.791Z,-1.14
2022-12-15T06:38:38.593Z,-1.12
2022-12-15T06:41:05.943Z,-1.10
2022-12-15T06:43:33.603Z,-1.06
2022-12-15T06:46:00.764Z,-1.10
2022-12-15T06:48:27.649Z,-1.02
2022-12-15T06:50:54.533Z,-0.98
2022-12-15T06:53:22.045Z,-0.96
2022-12-15T06:55:48.901Z,-0.88
2022-12-15T06:58:16.000Z,-0.86
2022-12-15T07:00:43.612Z,-0.83
2022-12-15T07:03:12.632Z,-0.72
2022-12-15T07:05:39.183Z,-0.70
2022-12-15T07:08:05.573Z,-0.64
2022-12-15T07:10:31.910Z,-0.64
2022-12-15T07:12:58.302Z,-0.61
2022-12-15T07:15:25.030Z,-0.59
2022-12-15T07:17:54.435Z,-0.56
2022-12-15T07:20:25.544Z,-0.50
2022-12-15T07:22:55.511Z,-0.48
2022-12-15T07:25:22.188Z,-0.42
2022-12-15T07:27:48.567Z,-0.42
2022-12-15T07:30:15.744Z,-0.37
2022-12-15T07:32:42.253Z,-0.35
2022-12-15T07:35:09.247Z,-0.33
2022-12-15T07:37:35.656Z,-0.34
2022-12-15T07:40:02.021Z,-0.34
2022-12-15T07:42:32.640Z,-0.33
2022-12-15T07:44:58.995Z,-0.29
2022-12-15T07:47:28.776Z,-0.30
2022-12-15T07:49:55.082Z,-0.22
2022-12-15T07:52:21.442Z,-0.19
2022-12-15T07:54:47.856Z,-0.11
2022-12-15T07:57:14.480Z,-0.09
2022-12-15T07:59:40.835Z,-0.12
2022-12-15T08:02:07.382Z,-0.06
2022-12-15T08:04:34.071Z,-0.02
2022-12-15T08:07:00.469Z,0.04
2022-12-15T08:09:27.037Z,0.06
2022-12-15T08:11:53.476Z,0.11
2022-12-15T08:14:20.198Z,0.17
2022-12-15T08:16:46.914Z,0.28
2022-12-15T08:19:15.086Z,0.44
2022-12-15T08:21:42.411Z,0.95
2022-12-15T08:24:09.589Z,1.16
2022-12-15T08:26:36.141Z,1.03
2022-12-15T08:29:31.889Z,1.17
2022-12-15T08:31:50.297Z,1.55
2022-12-15T08:34:16.635Z,1.65
2022-12-15T08:36:43.408Z,1.93
2022-12-15T08:39:09.745Z,1.78
2022-12-15T08:41:36.093Z,1.89
2022-12-15T08:44:02.529Z,2.00
2022-12-15T08:46:30.818Z,2.12
2022-12-15T08:48:57.490Z,2.14
2022-12-15T08:51:25.236Z,2.20
2022-12-15T08:53:51.586Z,2.19
2022-12-15T08:56:19.343Z,2.18
2022-12-15T08:58:46.398Z,2.06
2022-12-15T09:01:19.037Z,2.14
2022-12-15T09:03:49.842Z,2.21
2022-12-15T09:06:17.876Z,2.14
2022-12-15T09:08:44.719Z,2.24
2022-12-15T09:11:14.872Z,2.42
2022-12-15T09:13:43.626Z,2.41
2022-12-15T09:16:14.591Z,2.42
2022-12-15T09:18:42.839Z,2.47
2022-12-15T09:21:13.830Z,2.57
2022-12-15T09:23:40.273Z,2.57
2022-12-15T09:26:15.897Z,2.73
2022-12-15T09:28:43.177Z,2.95
2022-12-15T09:31:22.953Z,2.98
2022-12-15T09:33:50.600Z,3.27
2022-12-15T09:36:16.991Z,3.40
2022-12-15T09:38:43.946Z,3.51
2022-12-15T09:41:13.260Z,3.67
2022-12-15T09:43:47.018Z,3.72
2022-12-15T09:46:19.896Z,3.77
2022-12-15T09:48:46.942Z,3.83
2022-12-15T09:51:16.609Z,4.02
2022-12-15T09:53:54.601Z,4.04
2022-12-15T09:56:26.032Z,4.04
2022-12-15T09:59:04.181Z,4.04
2022-12-15T10:01:43.911Z,3.94
2022-12-15T10:04:17.762Z,3.85
2022-12-15T10:06:50.745Z,3.89
2022-12-15T10:09:22.816Z,3.95
2022-12-15T10:11:52.233Z,4.00
2022-12-15T10:14:24.370Z,4.01
2022-12-15T10:16:53.744Z,3.98
2022-12-15T10:19:44.433Z,4.01
2022-12-15T10:22:14.420Z,3.94
2022-12-15T10:27:33.637Z,4.47
2022-12-15T10:30:05.703Z,4.64
2022-12-15T10:32:43.891Z,4.77
2022-12-15T10:35:17.976Z,4.73
2022-12-15T10:37:44.504Z,4.75
2022-12-15T10:40:14.796Z,4.74
2022-12-15T10:42:48.490Z,4.84
2022-12-15T10:45:35.608Z,4.82
2022-12-15T10:48:02.689Z,4.76
2022-12-15T10:50:29.137Z,4.85
2022-12-15T10:52:55.472Z,4.94
2022-12-15T10:55:32.192Z,4.94
2022-12-15T10:58:00.353Z,4.95
2022-12-15T11:00:29.366Z,4.93
2022-12-15T11:02:56.257Z,4.84
2022-12-15T11:05:22.943Z,4.79
2022-12-15T11:07:50.422Z,4.76
2022-12-15T11:10:21.545Z,5.25
2022-12-15T11:12:59.500Z,5.40
2022-12-15T11:15:31.936Z,5.71
2022-12-15T11:18:07.339Z,5.66
2022-12-15T11:20:35.589Z,5.64
2022-12-15T11:23:05.756Z,5.77
2022-12-15T11:25:38.859Z,5.78
2022-12-15T11:28:10.585Z,5.78
2022-12-15T11:30:45.518Z,5.86
2022-12-15T11:33:11.963Z,5.73
2022-12-15T11:35:57.248Z,5.67
2022-12-15T11:38:59.533Z,5.56
2022-12-15T11:41:25.895Z,5.48
2022-12-15T11:44:06.186Z,5.38
2022-12-15T11:46:53.371Z,5.30
2022-12-15T11:49:34.908Z,5.40
2022-12-15T11:52:19.673Z,5.77
2022-12-15T11:54:51.810Z,6.09
2022-12-15T11:57:30.872Z,6.08
2022-12-15T11:59:57.298Z,5.89
2022-12-15T12:02:37.857Z,5.80
2022-12-15T12:05:27.765Z,5.82
2022-12-15T12:08:26.519Z,6.23
2022-12-15T12:11:11.429Z,6.67
2022-12-15T12:13:54.084Z,6.95
2022-12-15T12:16:39.961Z,7.28
2022-12-15T12:19:11.064Z,7.51
2022-12-15T12:21:40.766Z,7.55
2022-12-15T12:24:19.441Z,7.59
2022-12-15T12:26:48.557Z,7.52
2022-12-15T12:29:22.514Z,7.25
2022-12-15T12:32:03.836Z,7.08
2022-12-15T12:34:51.099Z,6.93
2022-12-15T12:37:24.011Z,6.82
2022-12-15T12:39:51.808Z,6.77
2022-12-15T12:42:18.079Z,6.79
2022-12-15T12:44:44.560Z,6.98
2022-12-15T12:47:40.256Z,6.90
2022-12-15T12:50:15.097Z,6.79
2022-12-15T12:52:47.667Z,6.82
2022-12-15T12:55:33.700Z,6.68
2022-12-15T12:58:00.134Z,6.65
2022-12-15T13:00:27.927Z,6.42
2022-12-15T13:03:10.218Z,6.33
2022-12-15T13:05:37.741Z,6.32
2022-12-15T13:08:07.871Z,6.30
2022-12-15T13:10:34.164Z,6.10
2022-12-15T13:13:18.969Z,6.10
2022-12-15T13:18:54.326Z,6.39
2022-12-15T13:21:39.676Z,6.25
2022-12-15T13:24:06.075Z,6.20
2022-12-15T13:26:32.527Z,6.22
2022-12-15T13:28:58.901Z,6.22
2022-12-15T13:31:27.532Z,6.34
2022-12-15T13:33:56.276Z,6.34
2022-12-15T13:36:37.978Z,6.41
2022-12-15T13:39:24.471Z,6.40
2022-12-15T13:44:51.451Z,6.12
2022-12-15T13:47:23.188Z,6.12
2022-12-15T13:50:02.697Z,5.96
2022-12-15T13:53:17.155Z,5.97
2022-12-15T13:55:37.102Z,5.89
2022-12-15T13:58:09.416Z,5.91
2022-12-15T14:00:38.097Z,5.91
2022-12-15T14:03:10.883Z,5.88
2022-12-15T14:05:39.058Z,6.00
2022-12-15T14:08:15.716Z,5.98
2022-12-15T14:10:52.584Z,5.90
2022-12-15T14:13:26.331Z,5.93
2022-12-15T14:15:54.845Z,5.82
2022-12-15T14:18:23.209Z,5.91
2022-12-15T14:20:49.839Z,5.93
2022-12-15T14:23:23.872Z,5.92
2022-12-15T14:25:54.454Z,5.87
2022-12-15T14:28:25.109Z,5.82
2022-12-15T14:30:51.488Z,5.77
2022-12-15T14:33:18.412Z,5.76
2022-12-15T14:35:44.768Z,5.66
2022-12-15T14:38:18.000Z,5.70
2022-12-15T14:40:45.844Z,5.69
2022-12-15T14:43:20.408Z,5.60
2022-12-15T14:45:48.966Z,5.56
2022-12-15T14:48:40.439Z,5.51
2022-12-15T14:51:09.645Z,5.46
2022-12-15T14:53:37.767Z,5.41
2022-12-15T14:56:14.721Z,5.29
2022-12-15T14:58:41.359Z,5.18
2022-12-15T15:01:24.485Z,5.15
2022-12-15T15:03:07.368Z,6.32
2022-12-15T15:03:16.451Z,6.27
2022-12-15T15:03:59.110Z,5.03
2022-12-15T15:06:30.222Z,4.98
2022-12-15T15:08:56.764Z,4.86
2022-12-15T15:11:23.091Z,4.74
2022-12-15T15:13:53.116Z,4.54
2022-12-15T15:16:22.771Z,4.36
2022-12-15T15:18:50.624Z,4.38
2022-12-15T15:21:18.783Z,4.32
2022-12-15T15:23:58.425Z,4.21
2022-12-15T15:26:25.653Z,4.00
2022-12-15T15:28:52.017Z,3.91
2022-12-15T15:31:24.648Z,3.87
2022-12-15T15:33:51.601Z,3.78
2022-12-15T15:36:18.040Z,3.67
2022-12-15T15:38:46.656Z,3.66
2022-12-15T15:41:16.115Z,3.60
2022-12-15T15:43:42.807Z,3.57
2022-12-15T15:46:14.439Z,3.49
2022-12-15T15:48:50.283Z,3.47
2022-12-15T15:51:16.905Z,3.40
2022-12-15T15:53:43.544Z,3.34
2022-12-15T15:56:11.587Z,3.24
2022-12-15T15:58:38.051Z,3.23
2022-12-15T16:01:09.585Z,3.17
2022-12-15T16:03:39.231Z,3.17
2022-12-15T16:06:06.619Z,3.09
2022-12-15T16:08:36.809Z,3.06
2022-12-15T16:11:03.331Z,2.99
2022-12-15T16:13:29.648Z,2.95
2022-12-15T16:15:56.132Z,2.95
2022-12-15T16:18:22.627Z,2.81
2022-12-15T16:20:51.026Z,2.76
2022-12-15T16:23:19.855Z,2.73
2022-12-15T16:25:50.877Z,2.74
2022-12-15T16:28:21.162Z,2.61
2022-12-15T16:30:48.151Z,2.68
2022-12-15T16:33:14.651Z,2.69
2022-12-15T16:35:42.085Z,2.65
2022-12-15T16:38:17.266Z,2.65
2022-12-15T16:40:43.957Z,2.61
2022-12-15T16:43:15.074Z,2.56
2022-12-15T16:45:42.736Z,2.57
2022-12-15T16:48:09.138Z,2.54
2022-12-15T16:50:36.574Z,2.53
2022-12-15T16:53:04.231Z,2.53
2022-12-15T16:55:35.088Z,2.47
2022-12-15T16:58:05.966Z,2.45
2022-12-15T17:00:34.153Z,2.48
2022-12-15T17:03:01.498Z,2.50
2022-12-15T17:05:31.046Z,2.46
2022-12-15T17:07:58.476Z,2.43
2022-12-15T17:10:28.079Z,2.33
2022-12-15T17:12:58.502Z,2.36
2022-12-15T17:15:26.515Z,2.34
2022-12-15T17:17:53.565Z,2.32
2022-12-15T17:20:29.382Z,2.24
2022-12-15T17:23:00.697Z,2.21
2022-12-15T17:26:09.248Z,2.17
2022-12-15T17:28:27.223Z,2.16
2022-12-15T17:30:53.648Z,2.06
2022-12-15T17:33:23.899Z,2.08
2022-12-15T17:35:51.694Z,2.12
2022-12-15T17:38:19.622Z,2.12
2022-12-15T17:40:46.875Z,2.18
2022-12-15T17:43:14.625Z,2.23
2022-12-15T17:45:41.539Z,2.26
2022-12-15T17:48:07.934Z,2.32
2022-12-15T17:50:34.886Z,2.30
2022-12-15T17:53:02.890Z,2.34
2022-12-15T17:55:34.797Z,2.35
2022-12-15T17:58:06.236Z,2.31
2022-12-15T18:00:33.071Z,2.32
2022-12-15T18:03:00.311Z,2.30
2022-12-15T18:05:27.831Z,2.30
2022-12-15T18:07:58.944Z,2.22
2022-12-15T18:10:31.277Z,2.23
2022-12-15T18:12:58.221Z,2.27
2022-12-15T18:15:26.657Z,2.27
2022-12-15T18:17:53.935Z,2.27
2022-12-15T18:20:20.657Z,2.26
2022-12-15T18:22:48.387Z,2.28
2022-12-15T18:25:16.541Z,2.28
2022-12-15T18:27:42.870Z,2.24
2022-12-15T18:30:13.715Z,2.16
2022-12-15T18:32:42.072Z,2.18
2022-12-15T18:35:15.987Z,2.20
2022-12-15T18:37:42.546Z,2.19
2022-12-15T18:40:15.867Z,2.14
2022-12-15T18:42:43.622Z,2.16
2022-12-15T18:45:15.701Z,2.02
2022-12-15T18:47:42.092Z,2.08
2022-12-15T18:50:13.545Z,2.11
2022-12-15T18:52:39.962Z,2.15
2022-12-15T18:55:14.231Z,2.16
2022-12-15T18:57:40.711Z,2.14
2022-12-15T19:00:07.833Z,2.24
2022-12-15T19:02:34.353Z,2.27
2022-12-15T19:05:00.887Z,2.26
2022-12-15T19:07:27.598Z,2.31
2022-12-15T19:09:54.223Z,2.30
2022-12-15T19:12:20.679Z,2.37
2022-12-15T19:14:48.901Z,2.36
2022-12-15T19:17:35.214Z,2.45
2022-12-15T19:20:20.578Z,2.51
2022-12-15T19:22:47.963Z,2.56
2022-12-15T19:25:26.703Z,2.61
2022-12-15T19:27:59.103Z,2.51
2022-12-15T19:30:27.212Z,2.41
2022-12-15T19:32:53.749Z,2.43
2022-12-15T19:35:21.466Z,2.47
2022-12-15T19:37:49.623Z,2.50
2022-12-15T19:40:23.636Z,2.54
2022-12-15T19:42:50.596Z,2.49
2022-12-15T19:45:18.737Z,2.46
2022-12-15T19:47:45.120Z,2.51
2022-12-15T19:50:15.791Z,2.49
2022-12-15T19:52:43.359Z,2.51
2022-12-15T19:55:14.265Z,2.45
2022-12-15T19:57:41.266Z,2.49
2022-12-15T20:00:15.386Z,2.47
2022-12-15T20:02:41.949Z,2.40
2022-12-15T20:05:08.375Z,2.51
2022-12-15T20:07:34.757Z,2.55
2022-12-15T20:10:01.126Z,2.37
2022-12-15T20:12:27.538Z,2.48
2022-12-15T20:14:53.912Z,2.54
2022-12-15T20:17:20.546Z,2.55
2022-12-15T20:19:46.874Z,2.54
2022-12-15T20:22:14.517Z,2.53
2022-12-15T20:24:41.251Z,2.60
2022-12-15T20:27:15.358Z,2.63
2022-12-15T20:29:41.780Z,2.62
2022-12-15T20:32:19.391Z,2.60
2022-12-15T20:34:46.284Z,2.61
2022-12-15T20:37:17.760Z,2.62
2022-12-15T20:39:44.124Z,2.55
2022-12-15T20:42:14.151Z,2.55
2022-12-15T20:44:40.514Z,2.63
2022-12-15T20:47:09.654Z,2.50
2022-12-15T20:49:35.964Z,2.48
2022-12-15T20:52:03.660Z,2.48
2022-12-15T20:54:30.011Z,2.48
2022-12-15T20:56:56.391Z,2.50
2022-12-15T20:59:22.911Z,2.53
2022-12-15T21:01:49.388Z,2.52
2022-12-15T21:04:20.804Z,2.49
2022-12-15T21:06:52.822Z,2.48
2022-12-15T21:09:21.451Z,2.48
2022-12-15T21:11:48.339Z,2.43
2022-12-15T21:14:17.237Z,2.42
2022-12-15T21:16:44.354Z,2.37
2022-12-15T21:19:20.506Z,2.31
2022-12-15T21:21:49.309Z,2.35
2022-12-15T21:24:22.946Z,2.30
2022-12-15T21:26:53.649Z,2.34
2022-12-15T21:29:22.572Z,2.34
2022-12-15T21:31:49.350Z,2.35
2022-12-15T21:34:15.698Z,2.35
2022-12-15T21:36:43.471Z,2.37
2022-12-15T21:39:12.634Z,2.38
2022-12-15T21:41:41.288Z,2.41
2022-12-15T21:44:14.486Z,2.33
2022-12-15T21:46:43.432Z,2.28
2022-12-15T21:49:20.434Z,2.26
2022-12-15T21:52:00.642Z,2.22
2022-12-15T21:54:31.331Z,2.20
2022-12-15T21:56:58.576Z,2.20
2022-12-15T21:59:27.770Z,2.16
2022-12-15T22:01:55.314Z,2.10
2022-12-15T22:04:29.271Z,2.10
2022-12-15T22:06:55.666Z,2.06
2022-12-15T22:09:21.983Z,2.07
2022-12-15T22:11:53.662Z,2.10
2022-12-15T22:14:23.088Z,2.12
2022-12-15T22:16:49.467Z,2.06
2022-12-15T22:19:15.884Z,2.11
2022-12-15T22:21:42.414Z,2.16
2022-12-15T22:24:09.597Z,2.21
2022-12-15T22:26:36.954Z,2.27
2022-12-15T22:29:09.468Z,2.28
2022-12-15T22:31:35.892Z,2.26
2022-12-15T22:34:05.672Z,2.29
2022-12-15T22:36:32.152Z,2.28
2022-12-15T22:39:01.690Z,2.30
2022-12-15T22:41:32.887Z,2.27
2022-12-15T22:43:59.284Z,2.24
2022-12-15T22:46:25.656Z,2.24
2022-12-15T22:48:52.823Z,2.22
2022-12-15T22:51:21.268Z,2.17
2022-12-15T22:53:47.700Z,2.07
2022-12-15T22:56:28.712Z,1.98
2022-12-15T22:58:57.868Z,1.99
2022-12-15T23:01:25.343Z,1.90
2022-12-15T23:03:52.103Z,1.85
2022-12-15T23:06:18.660Z,1.79
2022-12-15T23:08:45.034Z,1.64
2022-12-15T23:11:30.499Z,1.66
2022-12-15T23:13:56.883Z,1.61
2022-12-15T23:16:23.477Z,1.58
2022-12-15T23:18:51.784Z,1.55
2022-12-15T23:21:18.975Z,1.53
2022-12-15T23:23:45.494Z,1.51
2022-12-15T23:26:12.079Z,1.50
2022-12-15T23:28:38.522Z,1.44
2022-12-15T23:31:05.077Z,1.42
2022-12-15T23:33:32.283Z,1.38
2022-12-15T23:35:59.496Z,1.38
2022-12-15T23:38:26.673Z,1.34
2022-12-15T23:40:54.223Z,1.33
2022-12-15T23:43:21.563Z,1.34
2022-12-15T23:45:55.363Z,1.35
2022-12-15T23:48:21.656Z,1.37
2022-12-15T23:50:48.039Z,1.35
2022-12-15T23:53:14.430Z,1.36
2022-12-15T23:55:40.821Z,1.37
2022-12-15T23:58:08.239Z,1.37
